Time;durP1;ratioP1;P1;durP2;ratioP2;P2;SDS_P1;SDS_P2;PMS_P1;PMS_P2;Temp;Humidity;BMP_temperature;BMP_pressure;BME280_temperature;BME280_humidity;BME280_pressure;Samples;Min_cycle;Max_cycle;Signal;HPM_P1;HPM_P2
2023/03/13 00:00:45;;;;;;;;;;;;;;;19.77;63.82;98797.97;2076386;28;20367;-60
2023/03/13 00:01:48;;;;;;;;;;;;;;;19.77;64.02;98803.34;2075739;28;19932;-59
2023/03/13 00:02:49;;;;;;;;;;;;;;;19.79;63.69;98805.84;2076010;28;20434;-59
2023/03/13 00:03:51;;;;;;;;;;;;;;;19.77;63.91;98811.44;2072867;28;19999;-58
2023/03/13 00:04:51;;;;;;;;;;;;;;;19.75;63.74;98808.13;2077292;28;19932;-58
2023/03/13 00:05:55;;;;;;;;;;;;;;;19.75;63.94;98804.59;2081771;28;19928;-59
2023/03/13 00:06:57;;;;;;;;;;;;;;;19.75;63.85;98805.44;2076766;28;19924;-59
2023/03/13 00:07:57;;;;;;;;;;;;;;;19.76;63.96;98806.25;2080315;28;20000;-60
2023/03/13 00:09:00;;;;;;;;;;;;;;;19.76;63.58;98806.25;2081588;28;19932;-59
2023/03/13 00:10:00;;;;;;;;;;;;;;;19.74;64.00;98809.16;2079256;28;19932;-59
2023/03/13 00:11:02;;;;;;;;;;;;;;;19.75;63.81;98805.44;2086711;28;19943;-58
2023/03/13 00:12:04;;;;;;;;;;;;;;;19.73;63.67;98804.81;2079947;28;19932;-60
2023/03/13 00:13:05;;;;;;;;;;;;;;;19.72;63.66;98808.53;2075959;28;19925;-58
2023/03/13 00:14:08;;;;;;;;;;;;;;;19.73;63.81;98809.38;2083793;28;19968;-60
2023/03/13 00:15:09;;;;;;;;;;;;;;;19.71;63.67;98804.19;2077530;28;20032;-60
2023/03/13 00:16:11;;;;;;;;;;;;;;;19.73;63.57;98806.69;2083264;28;19975;-60
2023/03/13 00:17:11;;;;;;;;;;;;;;;19.72;63.94;98808.53;2079532;28;19988;-59
2023/03/13 00:18:13;;;;;;;;;;;;;;;19.71;63.92;98809.56;2078135;28;19932;-59
2023/03/13 00:19:15;;;;;;;;;;;;;;;19.71;63.61;98809.56;2078211;28;19952;-60
2023/03/13 00:20:16;;;;;;;;;;;;;;;19.70;63.61;98813.31;2073973;28;19932;-60
2023/03/13 00:21:18;;;;;;;;;;;;;;;19.69;63.99;98817.00;2079995;28;19924;-60
2023/03/13 00:22:19;;;;;;;;;;;;;;;19.69;63.93;98817.00;2080711;28;19940;-59
2023/03/13 00:23:20;;;;;;;;;;;;;;;19.68;63.81;98812.69;2079429;28;19924;-59
2023/03/13 00:24:21;;;;;;;;;;;;;;;19.69;63.49;98818.88;2081017;28;20291;-59
2023/03/13 00:25:22;;;;;;;;;;;;;;;19.68;63.87;98809.97;2081634;28;19933;-60
2023/03/13 00:26:24;;;;;;;;;;;;;;;19.69;63.63;98814.31;2079271;28;20313;-58
2023/03/13 00:27:25;;;;;;;;;;;;;;;19.68;63.91;98809.97;2082953;28;19925;-59
2023/03/13 00:28:27;;;;;;;;;;;;;;;19.68;63.90;98814.53;2079409;28;19983;-59
2023/03/13 00:29:29;;;;;;;;;;;;;;;19.67;63.49;98816.41;2078975;28;20462;-59
2023/03/13 00:30:30;;;;;;;;;;;;;;;19.66;63.77;98817.44;2079794;28;19933;-59
2023/03/13 00:31:32;;;;;;;;;;;;;;;19.66;63.63;98814.72;2079696;28;19932;-59
2023/03/13 00:32:32;;;;;;;;;;;;;;;19.65;63.58;98815.75;2077691;28;20918;-59
2023/03/13 00:33:33;;;;;;;;;;;;;;;19.64;63.96;98811.41;2079721;28;19987;-59
2023/03/13 00:34:34;;;;;;;;;;;;;;;19.64;64.05;98825.69;2079149;28;20933;-59
2023/03/13 00:35:35;;;;;;;;;;;;;;;19.64;63.71;98827.56;2069810;28;19932;-60
2023/03/13 00:36:36;;;;;;;;;;;;;;;19.64;63.94;98827.56;2076301;28;19929;-59
2023/03/13 00:37:36;;;;;;;;;;;;;;;19.62;63.53;98824.22;2077802;28;19932;-59
2023/03/13 00:38:38;;;;;;;;;;;;;;;19.63;63.64;98828.56;2076466;28;20423;-60
2023/03/13 00:39:38;;;;;;;;;;;;;;;19.62;63.82;98824.22;2082573;28;19936;-60
2023/03/13 00:40:40;;;;;;;;;;;;;;;19.62;63.48;98826.94;2074093;28;20723;-60
2023/03/13 00:41:42;;;;;;;;;;;;;;;19.62;63.54;98832.31;2081062;28;19933;-59
2023/03/13 00:42:43;;;;;;;;;;;;;;;19.62;63.70;98838.50;2079575;28;19932;-60
2023/03/13 00:43:44;;;;;;;;;;;;;;;19.61;63.54;98834.19;2074396;28;20282;-60
2023/03/13 00:44:46;;;;;;;;;;;;;;;19.60;63.75;98837.88;2075471;28;19933;-60
2023/03/13 00:45:48;;;;;;;;;;;;;;;19.62;63.38;98832.31;2083307;28;19986;-60
2023/03/13 00:46:49;;;;;;;;;;;;;;;19.60;63.66;98837.88;2084531;28;19994;-59
2023/03/13 00:47:50;;;;;;;;;;;;;;;19.59;63.89;98838.09;2079953;28;20052;-59
2023/03/13 00:48:51;;;;;;;;;;;;;;;19.57;63.84;98840.16;2083740;28;19935;-60
2023/03/13 00:49:52;;;;;;;;;;;;;;;19.57;63.78;98840.97;2077936;28;19928;-58
2023/03/13 00:50:53;;;;;;;;;;;;;;;19.57;63.93;98835.59;2081938;28;19983;-59
2023/03/13 00:51:54;;;;;;;;;;;;;;;19.58;63.88;98836.44;2083037;28;19924;-60
2023/03/13 00:52:55;;;;;;;;;;;;;;;19.57;63.78;98829.41;2084798;28;20271;-59
2023/03/13 00:53:59;;;;;;;;;;;;;;;19.56;63.50;98833.13;2079044;28;20460;-60
2023/03/13 00:55:00;;;;;;;;;;;;;;;19.56;63.69;98833.13;2074638;28;19928;-60
2023/03/13 00:56:02;;;;;;;;;;;;;;;19.56;63.53;98838.50;2079581;28;19933;-60
2023/03/13 00:57:04;;;;;;;;;;;;;;;19.53;63.90;98831.69;2073555;28;20011;-59
2023/03/13 00:58:04;;;;;;;;;;;;;;;19.54;63.94;98835.19;2075867;28;19933;-59
2023/03/13 00:59:06;;;;;;;;;;;;;;;19.53;63.72;98834.38;2078151;28;19979;-60
2023/03/13 01:00:08;;;;;;;;;;;;;;;19.54;63.63;98837.88;2082104;28;19928;-58
2023/03/13 01:01:11;;;;;;;;;;;;;;;19.53;63.42;98830.81;2080608;28;20543;-60
2023/03/13 01:02:11;;;;;;;;;;;;;;;19.52;63.55;98842.63;2079132;28;19937;-60
2023/03/13 01:03:13;;;;;;;;;;;;;;;19.53;63.81;98841.59;2075721;28;20287;-60
2023/03/13 01:04:13;;;;;;;;;;;;;;;19.51;63.76;98836.44;2079172;28;21326;-60
2023/03/13 01:05:15;;;;;;;;;;;;;;;19.52;63.64;98842.63;2078930;28;19937;-59
2023/03/13 01:06:17;;;;;;;;;;;;;;;19.50;63.90;98839.31;2080365;28;19925;-58
2023/03/13 01:07:19;;;;;;;;;;;;;;;19.50;63.50;98844.69;2077737;28;22542;-60
2023/03/13 01:08:19;;;;;;;;;;;;;;;19.50;63.77;98850.06;2076015;28;19972;-58
2023/03/13 01:09:21;;;;;;;;;;;;;;;19.49;63.93;98845.72;2077035;28;19937;-59
2023/03/13 01:10:21;;;;;;;;;;;;;;;19.48;63.88;98852.97;2080983;28;19929;-60
2023/03/13 01:11:23;;;;;;;;;;;;;;;19.47;63.84;98848.63;2076940;28;19939;-60
2023/03/13 01:12:24;;;;;;;;;;;;;;;19.47;63.90;98847.78;2079469;28;19928;-60
2023/03/13 01:13:25;;;;;;;;;;;;;;;19.47;63.66;98847.78;2086351;28;19924;-59
2023/03/13 01:14:26;;;;;;;;;;;;;;;19.47;63.80;98842.41;2070048;28;20970;-60
2023/03/13 01:15:29;;;;;;;;;;;;;;;19.47;64.08;98842.41;2076783;28;19932;-60
2023/03/13 01:16:31;;;;;;;;;;;;;;;19.46;63.81;98846.97;2074731;28;20006;-59
2023/03/13 01:17:32;;;;;;;;;;;;;;;19.45;64.14;98849.88;2077175;28;20290;-59
2023/03/13 01:18:33;;;;;;;;;;;;;;;19.45;63.64;98847.19;2075686;28;19933;-59
2023/03/13 01:19:34;;;;;;;;;;;;;;;19.44;63.50;98846.34;2080531;28;19964;-59
2023/03/13 01:20:35;;;;;;;;;;;;;;;19.45;63.89;98847.19;2084300;28;19928;-60
2023/03/13 01:21:36;;;;;;;;;;;;;;;19.42;63.61;98843.88;2076758;28;19924;-59
2023/03/13 01:22:37;;;;;;;;;;;;;;;19.42;63.91;98843.03;2072031;28;19929;-60
2023/03/13 01:23:38;;;;;;;;;;;;;;;19.41;63.71;98846.75;2084446;28;20664;-60
2023/03/13 01:24:39;;;;;;;;;;;;;;;19.40;63.70;98842.41;2080008;28;19979;-58
2023/03/13 01:25:40;;;;;;;;;;;;;;;19.40;64.00;98843.22;2080604;28;20434;-60
2023/03/13 01:26:41;;;;;;;;;;;;;;;19.40;63.66;98847.78;2074780;28;20570;-59
2023/03/13 01:27:46;;;;;;;;;;;;;;;19.40;63.83;98843.22;2079244;28;21526;-60
2023/03/13 01:28:47;;;;;;;;;;;;;;;19.40;63.87;98847.78;2072801;28;19935;-59
2023/03/13 01:29:48;;;;;;;;;;;;;;;19.37;63.64;98849.03;2082410;28;19931;-60
2023/03/13 01:30:50;;;;;;;;;;;;;;;19.37;63.88;98851.72;2073917;28;19932;-58
2023/03/13 01:31:52;;;;;;;;;;;;;;;19.36;63.74;98852.75;2079080;28;19953;-59
2023/03/13 01:32:52;;;;;;;;;;;;;;;19.39;63.83;98851.53;2083720;28;19950;-60
2023/03/13 01:33:55;;;;;;;;;;;;;;;19.38;63.55;98847.16;2079822;28;20331;-60
2023/03/13 01:34:55;;;;;;;;;;;;;;;19.37;63.94;98849.03;2080076;28;19944;-59
2023/03/13 01:36:01;;;;;;;;;;;;;;;19.37;63.73;98849.03;2073669;28;20318;-59
2023/03/13 01:37:01;;;;;;;;;;;;;;;19.37;64.02;98846.34;2078864;28;20032;-60
2023/03/13 01:38:03;;;;;;;;;;;;;;;19.36;63.92;98847.38;2077118;28;20696;-60
2023/03/13 01:39:04;;;;;;;;;;;;;;;19.36;63.90;98854.59;2080239;28;20866;-59
2023/03/13 01:40:06;;;;;;;;;;;;;;;19.35;63.77;98851.06;2082143;28;19986;-59
2023/03/13 01:41:07;;;;;;;;;;;;;;;19.35;63.51;98848.38;2076619;28;19925;-59
2023/03/13 01:42:08;;;;;;;;;;;;;;;19.34;63.57;98846.75;2080496;28;19964;-58
2023/03/13 01:43:16;;;;;;;;;;;;;;;19.35;63.63;98847.56;2082804;28;20035;-58
2023/03/13 01:44:21;;;;;;;;;;;;;;;19.35;63.59;98859.16;2081251;28;19933;-60
2023/03/13 01:45:40;;;;;;;;;;;;;;;19.34;63.64;98851.28;2068289;28;19936;-59
2023/03/13 01:46:43;;;;;;;;;;;;;;;19.34;63.55;98859.38;2079389;28;20351;-58
2023/03/13 01:47:44;;;;;;;;;;;;;;;19.33;63.68;98850.44;2082176;28;19990;-58
2023/03/13 01:48:49;;;;;;;;;;;;;;;19.33;63.75;98855.00;2078661;28;19936;-59
2023/03/13 01:49:51;;;;;;;;;;;;;;;19.32;63.41;98854.19;2079417;28;19929;-59
2023/03/13 01:50:53;;;;;;;;;;;;;;;19.31;63.52;98855.22;2074747;28;19933;-59
2023/03/13 01:51:58;;;;;;;;;;;;;;;19.30;63.65;98850.84;2076405;28;20481;-58
2023/03/13 01:52:58;;;;;;;;;;;;;;;19.31;63.54;98851.72;2080897;28;19995;-59
2023/03/13 01:54:03;;;;;;;;;;;;;;;19.31;63.76;98849.84;2074222;28;20016;-58
2023/03/13 01:55:08;;;;;;;;;;;;;;;19.31;63.44;98847.16;2077938;28;19929;-59
2023/03/13 01:56:12;;;;;;;;;;;;;;;19.31;63.51;98852.53;2082423;28;19929;-58
2023/03/13 01:57:14;;;;;;;;;;;;;;;19.29;63.36;98846.50;2075755;28;19936;-59
2023/03/13 01:58:16;;;;;;;;;;;;;;;19.29;63.55;98849.19;2078583;28;19928;-58
2023/03/13 01:59:19;;;;;;;;;;;;;;;19.28;63.82;98846.69;2083765;28;20494;-58
2023/03/13 02:00:22;;;;;;;;;;;;;;;19.28;63.56;98846.69;2080273;28;20437;-59
2023/03/13 02:01:24;;;;;;;;;;;;;;;19.27;63.66;98847.75;2081121;28;20011;-58
2023/03/13 02:02:28;;;;;;;;;;;;;;;19.28;63.79;98847.56;2077267;28;19933;-60
2023/03/13 02:03:29;;;;;;;;;;;;;;;19.25;64.00;98850.66;2083436;28;20307;-59
2023/03/13 02:04:35;;;;;;;;;;;;;;;19.25;63.61;98847.09;2079742;28;19933;-59
2023/03/13 02:05:36;;;;;;;;;;;;;;;19.25;63.76;98837.22;2079226;28;20019;-58
2023/03/13 02:06:41;;;;;;;;;;;;;;;19.25;63.66;98839.91;2079662;28;20425;-59
2023/03/13 02:07:44;;;;;;;;;;;;;;;19.25;63.66;98847.97;2076304;28;19976;-58
2023/03/13 02:08:48;;;;;;;;;;;;;;;19.24;63.66;98840.09;2079437;28;19936;-59
2023/03/13 02:09:51;;;;;;;;;;;;;;;19.25;63.64;98839.91;2077230;28;19929;-59
2023/03/13 02:10:56;;;;;;;;;;;;;;;19.25;63.61;98847.09;2080072;28;19929;-58
2023/03/13 02:12:01;;;;;;;;;;;;;;;19.24;63.33;98840.91;2080844;28;20338;-59
2023/03/13 02:13:01;;;;;;;;;;;;;;;19.24;63.41;98838.22;2075898;28;19932;-59
2023/03/13 02:14:04;;;;;;;;;;;;;;;19.25;63.95;98841.72;2073671;28;20023;-60
2023/03/13 02:15:06;;;;;;;;;;;;;;;19.23;63.29;98836.56;2082828;28;19925;-59
2023/03/13 02:16:08;;;;;;;;;;;;;;;19.24;63.69;98842.78;2076684;28;20374;-60
2023/03/13 02:17:08;;;;;;;;;;;;;;;19.20;63.70;98840.50;2082014;28;20015;-59
2023/03/13 02:18:11;;;;;;;;;;;;;;;19.21;63.66;98841.31;2077434;28;20929;-59
2023/03/13 02:19:16;;;;;;;;;;;;;;;19.21;63.58;98846.69;2079262;28;20337;-58
2023/03/13 02:20:21;;;;;;;;;;;;;;;19.20;63.64;98842.38;2067914;28;20425;-59
2023/03/13 02:21:30;;;;;;;;;;;;;;;19.17;63.59;98837.38;2082215;28;20506;-60
2023/03/13 02:22:33;;;;;;;;;;;;;;;19.18;63.78;98842.56;2076934;28;19933;-60
2023/03/13 02:23:38;;;;;;;;;;;;;;;19.17;63.65;98843.59;2079034;28;19982;-59
2023/03/13 02:24:45;;;;;;;;;;;;;;;19.19;63.68;98840.69;2082899;28;19982;-60
2023/03/13 02:25:47;;;;;;;;;;;;;;;19.17;63.53;98842.78;2081170;28;20611;-60
2023/03/13 02:26:49;;;;;;;;;;;;;;;19.19;63.55;98841.53;2078644;28;20417;-60
2023/03/13 02:27:50;;;;;;;;;;;;;;;19.18;63.33;98844.41;2082510;28;19928;-59
2023/03/13 02:28:51;;;;;;;;;;;;;;;19.19;63.44;98838.00;2078202;28;19929;-60
2023/03/13 02:29:52;;;;;;;;;;;;;;;19.17;63.61;98848.16;2078012;28;19929;-60
2023/03/13 02:30:54;;;;;;;;;;;;;;;19.16;63.62;98835.72;2080272;28;19933;-60
2023/03/13 02:31:55;;;;;;;;;;;;;;;19.17;63.29;98840.09;2085058;28;19932;-58
2023/03/13 02:32:57;;;;;;;;;;;;;;;19.16;63.38;98841.09;2078661;28;19933;-58
2023/03/13 02:33:59;;;;;;;;;;;;;;;19.12;63.55;98837.16;2079332;28;19925;-60
2023/03/13 02:35:03;;;;;;;;;;;;;;;19.13;63.67;98833.44;2082170;28;19939;-59
2023/03/13 02:36:04;;;;;;;;;;;;;;;19.13;63.65;98838.81;2077379;28;19970;-60
2023/03/13 02:37:09;;;;;;;;;;;;;;;19.15;63.70;98834.06;2080063;28;21115;-59
2023/03/13 02:38:16;;;;;;;;;;;;;;;19.14;63.50;98837.78;2078548;28;20964;-59
2023/03/13 02:39:20;;;;;;;;;;;;;;;19.14;63.37;98829.72;2084207;28;19928;-59
2023/03/13 02:40:22;;;;;;;;;;;;;;;19.13;63.40;98823.50;2081463;28;19933;-59
2023/03/13 02:41:25;;;;;;;;;;;;;;;19.13;63.39;98823.50;2075103;28;19932;-59
2023/03/13 02:42:27;;;;;;;;;;;;;;;19.10;63.78;98825.78;2080238;28;19998;-60
2023/03/13 02:43:29;;;;;;;;;;;;;;;19.10;63.77;98829.28;2083218;28;20288;-60
2023/03/13 02:44:30;;;;;;;;;;;;;;;19.09;63.62;98824.13;2079982;28;19940;-59
2023/03/13 02:45:31;;;;;;;;;;;;;;;19.08;63.52;98830.50;2074771;28;19928;-59
2023/03/13 02:46:42;;;;;;;;;;;;;;;19.06;63.69;98844.19;2077278;28;19933;-60
2023/03/13 02:47:43;;;;;;;;;;;;;;;19.07;63.46;98840.44;2068834;28;20296;-58
2023/03/13 02:48:45;;;;;;;;;;;;;;;19.07;63.87;98845.81;2075579;28;19928;-57
2023/03/13 02:49:46;;;;;;;;;;;;;;;19.08;63.61;98841.28;2082722;28;19947;-58
2023/03/13 02:50:47;;;;;;;;;;;;;;;19.08;63.37;98835.88;2075055;28;22193;-59
2023/03/13 02:51:48;;;;;;;;;;;;;;;19.05;63.53;98841.69;2076725;28;19975;-60
2023/03/13 02:52:52;;;;;;;;;;;;;;;19.05;63.49;98841.69;2078043;28;19944;-59
2023/03/13 02:53:56;;;;;;;;;;;;;;;19.06;63.66;98843.34;2072878;28;20342;-59
2023/03/13 02:54:59;;;;;;;;;;;;;;;19.05;63.46;98836.28;2080344;28;19929;-59
2023/03/13 02:56:01;;;;;;;;;;;;;;;19.02;63.85;98839.41;2082281;28;19928;-59
2023/03/13 02:57:03;;;;;;;;;;;;;;;19.05;63.39;98841.69;2071561;28;19925;-60
2023/03/13 02:58:05;;;;;;;;;;;;;;;19.03;63.39;98851.78;2077843;28;19988;-59
2023/03/13 02:59:06;;;;;;;;;;;;;;;19.00;63.86;98847.69;2075913;28;20441;-58
2023/03/13 03:00:11;;;;;;;;;;;;;;;19.01;63.68;98851.19;2084769;28;20371;-61
2023/03/13 03:01:11;;;;;;;;;;;;;;;19.01;63.36;98856.56;2080065;28;19928;-60
2023/03/13 03:02:13;;;;;;;;;;;;;;;18.98;63.54;98855.94;2075808;28;19943;-59
2023/03/13 03:03:13;;;;;;;;;;;;;;;19.00;63.43;98860.25;2077160;28;20375;-60
2023/03/13 03:04:15;;;;;;;;;;;;;;;18.99;63.33;98856.75;2085045;28;19956;-59
2023/03/13 03:05:15;;;;;;;;;;;;;;;18.98;63.63;98855.94;2081115;28;19925;-59
2023/03/13 03:06:17;;;;;;;;;;;;;;;18.98;63.48;98857.78;2078545;28;20019;-60
2023/03/13 03:07:17;;;;;;;;;;;;;;;18.97;63.45;98856.97;2079325;28;19928;-60
2023/03/13 03:08:18;;;;;;;;;;;;;;;18.96;63.41;98849.91;2081232;28;19941;-59
2023/03/13 03:09:19;;;;;;;;;;;;;;;18.97;63.16;98848.03;2078663;28;19932;-60
2023/03/13 03:10:20;;;;;;;;;;;;;;;18.95;63.55;98858.19;2080167;28;24225;-61
2023/03/13 03:11:21;;;;;;;;;;;;;;;18.96;63.83;98854.47;2075569;28;19987;-60
2023/03/13 03:12:24;;;;;;;;;;;;;;;18.98;63.33;98855.09;2079544;28;20483;-60
2023/03/13 03:13:24;;;;;;;;;;;;;;;18.97;63.62;98856.13;2077929;28;19928;-60
2023/03/13 03:14:26;;;;;;;;;;;;;;;18.93;63.49;98855.69;2076427;28;19984;-59
2023/03/13 03:15:26;;;;;;;;;;;;;;;18.92;63.57;98856.72;2076819;28;19984;-60
2023/03/13 03:16:28;;;;;;;;;;;;;;;18.90;63.94;98853.41;2073677;28;19940;-60
2023/03/13 03:17:28;;;;;;;;;;;;;;;18.91;63.61;98852.38;2069395;28;19933;-61
2023/03/13 03:18:29;;;;;;;;;;;;;;;18.92;63.29;98855.91;2075498;28;19971;-59
2023/03/13 03:19:30;;;;;;;;;;;;;;;18.91;63.72;98855.06;2077814;28;19941;-60
2023/03/13 03:20:31;;;;;;;;;;;;;;;18.90;64.00;98849.91;2077954;28;19932;-59
2023/03/13 03:21:32;;;;;;;;;;;;;;;18.89;63.45;98851.75;2075420;28;19933;-60
2023/03/13 03:22:33;;;;;;;;;;;;;;;18.91;63.39;98857.75;2079041;28;21304;-60
2023/03/13 03:23:35;;;;;;;;;;;;;;;18.93;63.63;98855.69;2078990;28;20598;-59
2023/03/13 03:24:36;;;;;;;;;;;;;;;18.90;63.18;98858.78;2080460;28;19972;-59
2023/03/13 03:25:36;;;;;;;;;;;;;;;18.91;63.20;98856.91;2082085;28;19928;-62
2023/03/13 03:26:38;;;;;;;;;;;;;;;18.90;63.29;98858.78;2083114;28;19928;-59
2023/03/13 03:27:40;;;;;;;;;;;;;;;18.88;63.30;98851.94;2075566;28;19929;-60
2023/03/13 03:28:41;;;;;;;;;;;;;;;18.89;63.69;98857.13;2078884;28;19963;-61
2023/03/13 03:29:42;;;;;;;;;;;;;;;18.87;63.36;98858.38;2078544;28;19925;-59
2023/03/13 03:30:43;;;;;;;;;;;;;;;18.87;63.53;98853.00;2070679;28;21732;-59
2023/03/13 03:31:44;;;;;;;;;;;;;;;18.86;63.57;98856.69;2079787;28;19925;-59
2023/03/13 03:32:45;;;;;;;;;;;;;;;18.85;63.57;98853.19;2082466;28;20276;-59
2023/03/13 03:33:45;;;;;;;;;;;;;;;18.87;63.23;98847.63;2077086;28;20006;-61
2023/03/13 03:34:47;;;;;;;;;;;;;;;18.88;63.61;98852.78;2081006;28;20338;-61
2023/03/13 03:35:48;;;;;;;;;;;;;;;18.88;63.38;98851.94;2079958;28;20044;-60
2023/03/13 03:36:49;;;;;;;;;;;;;;;18.86;63.21;98854.00;2076701;28;19929;-59
2023/03/13 03:37:50;;;;;;;;;;;;;;;18.86;63.23;98845.94;2079111;28;20673;-61
2023/03/13 03:38:51;;;;;;;;;;;;;;;18.85;63.18;98852.34;2081989;28;19975;-59
2023/03/13 03:39:52;;;;;;;;;;;;;;;18.82;63.43;98852.75;2074741;28;20585;-59
2023/03/13 03:40:53;;;;;;;;;;;;;;;18.84;63.29;98853.38;2077407;28;19928;-61
2023/03/13 03:41:54;;;;;;;;;;;;;;;18.83;63.61;98849.84;2082443;28;19929;-59
2023/03/13 03:42:56;;;;;;;;;;;;;;;18.82;63.38;98842.00;2075649;28;19929;-60
2023/03/13 03:43:57;;;;;;;;;;;;;;;18.82;63.48;98842.00;2081216;28;19929;-61
2023/03/13 03:44:58;;;;;;;;;;;;;;;18.82;63.30;98837.44;2083259;28;19999;-61
2023/03/13 03:45:59;;;;;;;;;;;;;;;18.83;63.39;98835.59;2081805;28;19985;-59
2023/03/13 03:47:00;;;;;;;;;;;;;;;18.82;63.38;98837.44;2082189;28;20491;-59
2023/03/13 03:48:01;;;;;;;;;;;;;;;18.82;63.24;98842.81;2081660;28;19929;-61
2023/03/13 03:49:02;;;;;;;;;;;;;;;18.81;63.44;98843.88;2075499;28;19936;-60
2023/03/13 03:50:03;;;;;;;;;;;;;;;18.81;63.26;98838.50;2081327;28;20844;-60
2023/03/13 03:51:05;;;;;;;;;;;;;;;18.80;63.45;98841.38;2075312;28;19932;-60
2023/03/13 03:52:05;;;;;;;;;;;;;;;18.77;63.15;98842.59;2074390;28;20071;-60
2023/03/13 03:53:08;;;;;;;;;;;;;;;18.81;63.30;98845.72;2078760;28;21994;-60
2023/03/13 03:54:08;;;;;;;;;;;;;;;18.80;63.48;98844.06;2079664;28;19963;-60
2023/03/13 03:55:10;;;;;;;;;;;;;;;18.79;63.38;98848.59;2077451;28;19932;-59
2023/03/13 03:56:10;;;;;;;;;;;;;;;18.79;63.41;98851.28;2079608;28;19933;-59
2023/03/13 03:57:12;;;;;;;;;;;;;;;18.78;63.49;98851.47;2082127;28;20020;-61
2023/03/13 03:58:13;;;;;;;;;;;;;;;18.76;63.41;98854.38;2075703;28;20142;-58
2023/03/13 03:59:15;;;;;;;;;;;;;;;18.76;63.17;98854.38;2079209;28;20345;-61
2023/03/13 04:00:17;;;;;;;;;;;;;;;18.74;63.35;98856.44;2080901;28;19954;-58
2023/03/13 04:01:19;;;;;;;;;;;;;;;18.75;63.46;98856.25;2082802;28;19928;-58
2023/03/13 04:02:19;;;;;;;;;;;;;;;18.74;63.45;98857.25;2077174;28;20492;-58
2023/03/13 04:03:21;;;;;;;;;;;;;;;18.73;63.75;98862.81;2076506;28;19978;-61
2023/03/13 04:04:21;;;;;;;;;;;;;;;18.73;63.24;98860.13;2081431;28;19964;-59
2023/03/13 04:05:23;;;;;;;;;;;;;;;18.72;63.36;98855.75;2081354;28;19933;-60
2023/03/13 04:06:23;;;;;;;;;;;;;;;18.72;63.44;98861.13;2083024;28;19932;-60
2023/03/13 04:07:25;;;;;;;;;;;;;;;18.74;63.19;98856.44;2079971;28;19928;-59
2023/03/13 04:08:25;;;;;;;;;;;;;;;18.74;63.25;98859.94;2074714;28;19940;-58
2023/03/13 04:09:27;;;;;;;;;;;;;;;18.72;63.27;98858.44;2079792;28;19928;-60
2023/03/13 04:10:27;;;;;;;;;;;;;;;18.74;63.36;98856.44;2076212;28;19929;-58
2023/03/13 04:11:29;;;;;;;;;;;;;;;18.74;63.27;98851.06;2074222;28;19948;-60
2023/03/13 04:12:29;;;;;;;;;;;;;;;18.73;63.24;98849.38;2081496;28;19956;-60
2023/03/13 04:13:32;;;;;;;;;;;;;;;18.73;63.08;98852.06;2077995;28;19932;-59
2023/03/13 04:14:32;;;;;;;;;;;;;;;18.75;62.76;98848.19;2081287;28;19975;-60
2023/03/13 04:15:34;;;;;;;;;;;;;;;18.74;63.12;98840.31;2082013;28;19991;-59
2023/03/13 04:16:34;;;;;;;;;;;;;;;18.73;63.20;98850.19;2080515;28;19928;-60
2023/03/13 04:17:36;;;;;;;;;;;;;;;18.70;63.31;98853.28;2079013;28;19978;-61
2023/03/13 04:18:36;;;;;;;;;;;;;;;18.72;63.04;98851.25;2076773;28;19992;-60
2023/03/13 04:19:38;;;;;;;;;;;;;;;18.72;62.98;98848.56;2074248;28;19981;-59
2023/03/13 04:20:38;;;;;;;;;;;;;;;18.75;63.21;98850.03;2076413;28;19928;-60
2023/03/13 04:21:40;;;;;;;;;;;;;;;18.74;63.10;98856.44;2080440;28;20526;-61
2023/03/13 04:22:41;;;;;;;;;;;;;;;18.73;62.90;98855.56;2083516;28;20615;-59
2023/03/13 04:23:42;;;;;;;;;;;;;;;18.77;62.83;98856.03;2079322;28;19933;-60
2023/03/13 04:24:43;;;;;;;;;;;;;;;18.75;62.83;98853.56;2073085;28;19982;-61
2023/03/13 04:25:44;;;;;;;;;;;;;;;18.73;62.86;98857.44;2081239;28;20071;-58
2023/03/13 04:26:44;;;;;;;;;;;;;;;18.72;62.98;98855.75;2079007;28;19929;-60
2023/03/13 04:27:46;;;;;;;;;;;;;;;18.73;63.19;98852.06;2078004;28;19983;-59
2023/03/13 04:28:48;;;;;;;;;;;;;;;18.75;63.12;98847.34;2079268;28;19925;-59
2023/03/13 04:29:49;;;;;;;;;;;;;;;18.77;62.62;98844.44;2068532;28;19982;-61
2023/03/13 04:30:50;;;;;;;;;;;;;;;18.77;62.92;98845.28;2073003;28;19933;-59
2023/03/13 04:31:51;;;;;;;;;;;;;;;18.78;62.78;98846.97;2077106;28;19928;-59
2023/03/13 04:32:52;;;;;;;;;;;;;;;18.79;62.71;98840.53;2082040;28;19954;-61
2023/03/13 04:33:53;;;;;;;;;;;;;;;18.78;62.60;98844.28;2079744;28;19974;-60
2023/03/13 04:34:53;;;;;;;;;;;;;;;18.79;62.29;98837.84;2083683;28;20349;-61
2023/03/13 04:35:55;;;;;;;;;;;;;;;18.80;62.50;98838.69;2081836;28;19928;-60
2023/03/13 04:36:55;;;;;;;;;;;;;;;18.81;61.73;98846.56;2080275;28;20538;-60
2023/03/13 04:37:57;;;;;;;;;;;;;;;18.83;62.02;98843.66;2076026;28;20016;-60
2023/03/13 04:38:57;;;;;;;;;;;;;;;18.86;61.92;98845.94;2077793;28;20450;-60
2023/03/13 04:39:59;;;;;;;;;;;;;;;18.87;61.91;98837.69;2079604;28;20027;-60
2023/03/13 04:41:00;;;;;;;;;;;;;;;18.90;61.95;98839.97;2074192;28;19925;-59
2023/03/13 04:42:01;;;;;;;;;;;;;;;18.90;61.99;98831.91;2075336;28;19991;-60
2023/03/13 04:43:02;;;;;;;;;;;;;;;18.94;62.06;98837.69;2075286;28;19955;-58
2023/03/13 04:44:04;;;;;;;;;;;;;;;18.97;62.02;98834.59;2078655;28;20019;-58
2023/03/13 04:45:06;;;;;;;;;;;;;;;19.00;61.69;98828.84;2076700;28;19971;-59
2023/03/13 04:46:07;;;;;;;;;;;;;;;19.04;62.11;98832.78;2082369;28;20337;-59
2023/03/13 04:47:08;;;;;;;;;;;;;;;19.09;61.64;98835.72;2078681;28;19929;-59
2023/03/13 04:48:09;;;;;;;;;;;;;;;19.12;61.58;98839.84;2067437;28;19926;-59
2023/03/13 04:49:10;;;;;;;;;;;;;;;19.14;61.73;98843.19;2068584;28;19929;-62
2023/03/13 04:50:11;;;;;;;;;;;;;;;19.16;61.46;98839.22;2084008;28;19982;-59
2023/03/13 04:51:12;;;;;;;;;;;;;;;19.22;61.55;98847.53;2072316;28;19983;-59
2023/03/13 04:52:13;;;;;;;;;;;;;;;19.24;61.73;98846.28;2077457;28;19959;-59
2023/03/13 04:53:14;;;;;;;;;;;;;;;19.26;61.70;98841.53;2075978;28;20035;-60
2023/03/13 04:54:15;;;;;;;;;;;;;;;19.28;61.73;98852.94;2073835;28;24497;-61
2023/03/13 04:55:16;;;;;;;;;;;;;;;19.28;61.56;98849.41;2077897;28;20019;-60
2023/03/13 04:56:21;;;;;;;;;;;;;;;19.34;61.57;98853.97;2080920;28;19933;-59
2023/03/13 04:57:21;;;;;;;;;;;;;;;19.36;61.38;98846.53;2076970;28;19963;-59
2023/03/13 04:58:23;;;;;;;;;;;;;;;19.37;61.23;98851.72;2074284;28;19932;-60
2023/03/13 04:59:25;;;;;;;;;;;;;;;19.40;61.59;98851.31;2081974;28;19932;-59
2023/03/13 05:00:26;;;;;;;;;;;;;;;19.42;61.44;98854.63;2079528;28;20112;-59
2023/03/13 05:01:26;;;;;;;;;;;;;;;19.42;61.50;98849.25;2081373;28;21811;-59
2023/03/13 05:02:28;;;;;;;;;;;;;;;19.46;61.04;98854.22;2073564;28;19933;-59
2023/03/13 05:03:28;;;;;;;;;;;;;;;19.47;61.04;98850.47;2073903;28;19925;-58
2023/03/13 05:04:30;;;;;;;;;;;;;;;19.48;61.32;98846.78;2075707;28;20503;-61
2023/03/13 05:05:32;;;;;;;;;;;;;;;19.50;60.92;98850.94;2075208;28;19936;-60
2023/03/13 05:06:34;;;;;;;;;;;;;;;19.52;61.06;98846.16;2075903;28;19933;-58
2023/03/13 05:07:34;;;;;;;;;;;;;;;19.54;61.32;98845.94;2081024;28;20437;-60
2023/03/13 05:08:36;;;;;;;;;;;;;;;19.54;61.34;98846.78;2080319;28;19925;-60
2023/03/13 05:09:36;;;;;;;;;;;;;;;19.57;60.86;98846.38;2076957;28;20566;-60
2023/03/13 05:10:38;;;;;;;;;;;;;;;19.59;61.15;98844.31;2077163;28;19933;-59
2023/03/13 05:11:39;;;;;;;;;;;;;;;19.60;60.98;98843.25;2079878;28;19936;-59
2023/03/13 05:12:40;;;;;;;;;;;;;;;19.61;61.04;98844.94;2082549;28;20603;-59
2023/03/13 05:13:41;;;;;;;;;;;;;;;19.62;60.99;98851.97;2079588;28;20334;-58
2023/03/13 05:14:44;;;;;;;;;;;;;;;19.64;60.92;98859.84;2075382;28;19941;-58
2023/03/13 05:15:44;;;;;;;;;;;;;;;19.64;60.73;98851.78;2076459;28;19986;-59
2023/03/13 05:16:45;;;;;;;;;;;;;;;19.66;60.92;98854.28;2075783;28;19933;-59
2023/03/13 05:17:46;;;;;;;;;;;;;;;19.68;60.84;98857.59;2074173;28;20006;-59
2023/03/13 05:18:47;;;;;;;;;;;;;;;19.68;60.97;98858.41;2074080;28;19929;-59
2023/03/13 05:19:48;;;;;;;;;;;;;;;19.67;60.77;98862.16;2074065;28;19971;-59
2023/03/13 05:20:49;;;;;;;;;;;;;;;19.70;60.90;98855.53;2074707;28;19933;-58
2023/03/13 05:21:50;;;;;;;;;;;;;;;19.71;60.77;98854.50;2074995;28;19928;-59